sensor_id;sensor_type;location;lat;lon;timestamp;P1;durP1;ratioP1;P2;durP2;ratioP2
65597;SDS011;52267;51.984;20.956;2024-02-15T00:01:26;14.20;;;7.80;;
65597;SDS011;52267;51.984;20.956;2024-02-15T00:03:53;15.10;;;8.20;;
65597;SDS011;52267;51.984;20.956;2024-02-15T00:06:20;18.10;;;8.60;;
65597;SDS011;52267;51.984;20.956;2024-02-15T00:08:47;17.20;;;8.90;;
65597;SDS011;52267;51.984;20.956;2024-02-15T00:11:14;13.60;;;7.40;;
65597;SDS011;52267;51.984;20.956;2024-02-15T00:13:41;15.10;;;8.30;;
65597;SDS011;52267;51.984;20.956;2024-02-15T00:16:16;16.30;;;8.20;;
65597;SDS011;52267;51.984;20.956;2024-02-15T00:18:43;15.90;;;7.80;;
65597;SDS011;52267;51.984;20.956;2024-02-15T00:21:11;11.90;;;7.10;;
65597;SDS011;52267;51.984;20.956;2024-02-15T00:23:41;16.50;;;8.10;;
65597;SDS011;52267;51.984;20.956;2024-02-15T00:26:09;14.90;;;6.80;;
65597;SDS011;52267;51.984;20.956;2024-02-15T00:28:41;14.70;;;8.70;;
65597;SDS011;52267;51.984;20.956;2024-02-15T00:31:08;16.40;;;8.50;;
65597;SDS011;52267;51.984;20.956;2024-02-15T00:33:35;16.60;;;8.40;;
65597;SDS011;52267;51.984;20.956;2024-02-15T00:36:04;17.50;;;8.60;;
65597;SDS011;52267;51.984;20.956;2024-02-15T00:38:32;11.80;;;7.20;;
65597;SDS011;52267;51.984;20.956;2024-02-15T00:40:59;17.00;;;8.60;;
65597;SDS011;52267;51.984;20.956;2024-02-15T00:43:29;16.30;;;9.10;;
65597;SDS011;52267;51.984;20.956;2024-02-15T00:45:56;18.70;;;8.70;;
65597;SDS011;52267;51.984;20.956;2024-02-15T00:48:23;14.50;;;7.10;;
65597;SDS011;52267;51.984;20.956;2024-02-15T00:50:59;12.00;;;6.70;;
65597;SDS011;52267;51.984;20.956;2024-02-15T00:53:26;12.40;;;7.40;;
65597;SDS011;52267;51.984;20.956;2024-02-15T00:55:52;17.20;;;8.10;;
65597;SDS011;52267;51.984;20.956;2024-02-15T00:58:19;15.30;;;7.90;;
65597;SDS011;52267;51.984;20.956;2024-02-15T01:00:48;15.20;;;7.60;;
65597;SDS011;52267;51.984;20.956;2024-02-15T01:03:15;15.60;;;8.80;;
65597;SDS011;52267;51.984;20.956;2024-02-15T01:05:43;15.00;;;6.70;;
65597;SDS011;52267;51.984;20.956;2024-02-15T01:08:10;12.90;;;6.90;;
65597;SDS011;52267;51.984;20.956;2024-02-15T01:10:37;15.20;;;8.30;;
65597;SDS011;52267;51.984;20.956;2024-02-15T01:13:05;13.90;;;7.30;;
65597;SDS011;52267;51.984;20.956;2024-02-15T01:15:31;15.00;;;6.70;;
65597;SDS011;52267;51.984;20.956;2024-02-15T01:17:58;16.70;;;8.10;;
65597;SDS011;52267;51.984;20.956;2024-02-15T01:20:25;17.10;;;8.10;;
65597;SDS011;52267;51.984;20.956;2024-02-15T01:22:53;15.40;;;7.20;;
65597;SDS011;52267;51.984;20.956;2024-02-15T01:25:21;17.50;;;8.90;;
65597;SDS011;52267;51.984;20.956;2024-02-15T01:27:50;15.50;;;7.40;;
65597;SDS011;52267;51.984;20.956;2024-02-15T01:30:17;17.70;;;8.50;;
65597;SDS011;52267;51.984;20.956;2024-02-15T01:32:45;14.60;;;8.20;;
65597;SDS011;52267;51.984;20.956;2024-02-15T01:35:12;18.00;;;8.50;;
65597;SDS011;52267;51.984;20.956;2024-02-15T01:37:39;12.70;;;7.00;;
65597;SDS011;52267;51.984;20.956;2024-02-15T01:40:06;15.70;;;8.10;;
65597;SDS011;52267;51.984;20.956;2024-02-15T01:42:34;15.10;;;8.60;;
65597;SDS011;52267;51.984;20.956;2024-02-15T01:45:02;15.30;;;8.90;;
65597;SDS011;52267;51.984;20.956;2024-02-15T01:47:31;16.50;;;8.10;;
65597;SDS011;52267;51.984;20.956;2024-02-15T01:50:00;14.90;;;8.00;;
65597;SDS011;52267;51.984;20.956;2024-02-15T01:52:28;17.10;;;9.10;;
65597;SDS011;52267;51.984;20.956;2024-02-15T01:54:55;9.70;;;6.20;;
65597;SDS011;52267;51.984;20.956;2024-02-15T01:57:24;10.70;;;6.90;;
65597;SDS011;52267;51.984;20.956;2024-02-15T01:59:51;17.00;;;8.30;;
65597;SDS011;52267;51.984;20.956;2024-02-15T02:02:22;15.40;;;7.70;;
65597;SDS011;52267;51.984;20.956;2024-02-15T02:04:54;17.10;;;9.00;;
65597;SDS011;52267;51.984;20.956;2024-02-15T02:07:23;10.50;;;6.10;;
65597;SDS011;52267;51.984;20.956;2024-02-15T02:09:52;14.00;;;7.90;;
65597;SDS011;52267;51.984;20.956;2024-02-15T02:12:22;16.20;;;8.20;;
65597;SDS011;52267;51.984;20.956;2024-02-15T02:14:53;14.20;;;7.30;;
65597;SDS011;52267;51.984;20.956;2024-02-15T02:17:24;11.70;;;6.10;;
65597;SDS011;52267;51.984;20.956;2024-02-15T02:19:51;13.40;;;7.10;;
65597;SDS011;52267;51.984;20.956;2024-02-15T02:22:19;13.60;;;7.60;;
65597;SDS011;52267;51.984;20.956;2024-02-15T02:25:05;16.50;;;8.50;;
65597;SDS011;52267;51.984;20.956;2024-02-15T02:27:33;13.30;;;7.50;;
65597;SDS011;52267;51.984;20.956;2024-02-15T02:30:03;13.50;;;7.40;;
65597;SDS011;52267;51.984;20.956;2024-02-15T02:32:33;15.90;;;7.80;;
65597;SDS011;52267;51.984;20.956;2024-02-15T02:35:03;12.90;;;7.00;;
65597;SDS011;52267;51.984;20.956;2024-02-15T02:37:30;17.30;;;8.30;;
65597;SDS011;52267;51.984;20.956;2024-02-15T02:39:57;15.90;;;8.70;;
65597;SDS011;52267;51.984;20.956;2024-02-15T02:42:24;15.70;;;8.70;;
65597;SDS011;52267;51.984;20.956;2024-02-15T02:44:51;11.10;;;6.80;;
65597;SDS011;52267;51.984;20.956;2024-02-15T02:47:18;14.40;;;7.80;;
65597;SDS011;52267;51.984;20.956;2024-02-15T02:49:45;13.50;;;6.90;;
65597;SDS011;52267;51.984;20.956;2024-02-15T02:52:12;15.00;;;8.70;;
65597;SDS011;52267;51.984;20.956;2024-02-15T02:54:39;19.00;;;9.30;;
65597;SDS011;52267;51.984;20.956;2024-02-15T02:57:06;17.00;;;8.90;;
65597;SDS011;52267;51.984;20.956;2024-02-15T02:59:34;14.70;;;7.10;;
65597;SDS011;52267;51.984;20.956;2024-02-15T03:02:02;13.40;;;6.90;;
65597;SDS011;52267;51.984;20.956;2024-02-15T03:04:32;15.50;;;8.60;;
65597;SDS011;52267;51.984;20.956;2024-02-15T03:06:59;17.30;;;8.40;;
65597;SDS011;52267;51.984;20.956;2024-02-15T03:09:26;12.00;;;7.10;;
65597;SDS011;52267;51.984;20.956;2024-02-15T03:11:55;14.30;;;8.00;;
65597;SDS011;52267;51.984;20.956;2024-02-15T03:14:23;14.30;;;7.50;;
65597;SDS011;52267;51.984;20.956;2024-02-15T03:16:51;11.40;;;6.00;;
65597;SDS011;52267;51.984;20.956;2024-02-15T03:19:18;15.60;;;8.10;;
65597;SDS011;52267;51.984;20.956;2024-02-15T03:21:45;11.90;;;6.80;;
65597;SDS011;52267;51.984;20.956;2024-02-15T03:24:13;11.80;;;6.50;;
65597;SDS011;52267;51.984;20.956;2024-02-15T03:26:40;12.10;;;7.00;;
65597;SDS011;52267;51.984;20.956;2024-02-15T03:29:09;12.80;;;7.50;;
65597;SDS011;52267;51.984;20.956;2024-02-15T03:31:36;16.40;;;9.00;;
65597;SDS011;52267;51.984;20.956;2024-02-15T03:34:06;13.70;;;7.90;;
65597;SDS011;52267;51.984;20.956;2024-02-15T03:36:33;14.80;;;7.70;;
65597;SDS011;52267;51.984;20.956;2024-02-15T03:39:00;14.60;;;8.70;;
65597;SDS011;52267;51.984;20.956;2024-02-15T03:41:28;13.60;;;7.70;;
65597;SDS011;52267;51.984;20.956;2024-02-15T03:46:26;14.30;;;8.50;;
65597;SDS011;52267;51.984;20.956;2024-02-15T03:48:53;14.90;;;8.60;;
65597;SDS011;52267;51.984;20.956;2024-02-15T03:51:23;14.10;;;7.90;;
65597;SDS011;52267;51.984;20.956;2024-02-15T03:53:51;16.00;;;8.60;;
65597;SDS011;52267;51.984;20.956;2024-02-15T03:56:18;15.10;;;8.10;;
65597;SDS011;52267;51.984;20.956;2024-02-15T03:58:48;12.50;;;6.60;;
65597;SDS011;52267;51.984;20.956;2024-02-15T04:01:17;10.80;;;6.60;;
65597;SDS011;52267;51.984;20.956;2024-02-15T04:03:44;13.20;;;6.60;;
65597;SDS011;52267;51.984;20.956;2024-02-15T04:06:11;11.80;;;7.30;;
65597;SDS011;52267;51.984;20.956;2024-02-15T04:08:38;12.80;;;6.20;;
65597;SDS011;52267;51.984;20.956;2024-02-15T04:11:06;16.20;;;9.10;;
65597;SDS011;52267;51.984;20.956;2024-02-15T04:13:34;14.70;;;8.30;;
65597;SDS011;52267;51.984;20.956;2024-02-15T04:16:01;15.10;;;8.80;;
65597;SDS011;52267;51.984;20.956;2024-02-15T04:18:28;11.00;;;5.80;;
65597;SDS011;52267;51.984;20.956;2024-02-15T04:20:58;15.80;;;8.40;;
65597;SDS011;52267;51.984;20.956;2024-02-15T04:23:25;15.70;;;8.10;;
65597;SDS011;52267;51.984;20.956;2024-02-15T04:25:52;14.60;;;8.00;;
65597;SDS011;52267;51.984;20.956;2024-02-15T04:28:20;12.10;;;7.20;;
65597;SDS011;52267;51.984;20.956;2024-02-15T04:30:48;14.90;;;8.30;;
65597;SDS011;52267;51.984;20.956;2024-02-15T04:33:15;14.80;;;8.20;;
65597;SDS011;52267;51.984;20.956;2024-02-15T04:35:43;17.10;;;9.00;;
65597;SDS011;52267;51.984;20.956;2024-02-15T04:38:10;12.70;;;6.30;;
65597;SDS011;52267;51.984;20.956;2024-02-15T04:40:37;12.90;;;7.20;;
65597;SDS011;52267;51.984;20.956;2024-02-15T04:43:06;12.60;;;6.70;;
65597;SDS011;52267;51.984;20.956;2024-02-15T04:45:35;9.70;;;5.70;;
65597;SDS011;52267;51.984;20.956;2024-02-15T04:48:02;16.70;;;8.70;;
65597;SDS011;52267;51.984;20.956;2024-02-15T04:50:30;14.90;;;7.60;;
65597;SDS011;52267;51.984;20.956;2024-02-15T04:53:00;11.30;;;6.60;;
65597;SDS011;52267;51.984;20.956;2024-02-15T04:55:27;14.60;;;8.00;;
65597;SDS011;52267;51.984;20.956;2024-02-15T04:57:57;15.10;;;7.90;;
65597;SDS011;52267;51.984;20.956;2024-02-15T05:00:26;14.30;;;8.40;;
65597;SDS011;52267;51.984;20.956;2024-02-15T05:02:53;13.40;;;7.80;;
65597;SDS011;52267;51.984;20.956;2024-02-15T05:05:20;15.40;;;8.80;;
65597;SDS011;52267;51.984;20.956;2024-02-15T05:07:48;16.20;;;8.50;;
65597;SDS011;52267;51.984;20.956;2024-02-15T05:10:18;14.50;;;8.80;;
65597;SDS011;52267;51.984;20.956;2024-02-15T05:12:45;11.80;;;6.90;;
65597;SDS011;52267;51.984;20.956;2024-02-15T05:15:15;13.20;;;8.10;;
65597;SDS011;52267;51.984;20.956;2024-02-15T05:17:44;9.00;;;5.60;;
65597;SDS011;52267;51.984;20.956;2024-02-15T05:20:11;16.50;;;8.70;;
65597;SDS011;52267;51.984;20.956;2024-02-15T05:22:40;16.00;;;8.80;;
65597;SDS011;52267;51.984;20.956;2024-02-15T05:25:12;11.40;;;5.00;;
65597;SDS011;52267;51.984;20.956;2024-02-15T05:27:39;18.00;;;9.10;;
65597;SDS011;52267;51.984;20.956;2024-02-15T05:30:06;14.30;;;9.40;;
65597;SDS011;52267;51.984;20.956;2024-02-15T05:32:35;13.50;;;7.50;;
65597;SDS011;52267;51.984;20.956;2024-02-15T05:35:09;13.40;;;7.90;;
65597;SDS011;52267;51.984;20.956;2024-02-15T05:37:38;16.40;;;8.50;;
65597;SDS011;52267;51.984;20.956;2024-02-15T05:40:06;13.90;;;6.90;;
65597;SDS011;52267;51.984;20.956;2024-02-15T05:42:34;21.10;;;11.00;;
65597;SDS011;52267;51.984;20.956;2024-02-15T05:47:54;18.70;;;8.50;;
65597;SDS011;52267;51.984;20.956;2024-02-15T05:50:21;17.70;;;9.40;;
65597;SDS011;52267;51.984;20.956;2024-02-15T05:52:50;15.60;;;7.80;;
65597;SDS011;52267;51.984;20.956;2024-02-15T05:55:21;15.50;;;9.00;;
65597;SDS011;52267;51.984;20.956;2024-02-15T05:57:49;16.30;;;10.10;;
65597;SDS011;52267;51.984;20.956;2024-02-15T06:00:16;17.30;;;10.10;;
65597;SDS011;52267;51.984;20.956;2024-02-15T06:02:45;19.00;;;10.50;;
65597;SDS011;52267;51.984;20.956;2024-02-15T06:05:12;14.20;;;9.10;;
65597;SDS011;52267;51.984;20.956;2024-02-15T06:07:43;19.10;;;10.00;;
65597;SDS011;52267;51.984;20.956;2024-02-15T06:10:11;15.70;;;9.60;;
65597;SDS011;52267;51.984;20.956;2024-02-15T06:12:38;20.20;;;11.00;;
65597;SDS011;52267;51.984;20.956;2024-02-15T06:15:05;17.60;;;10.10;;
65597;SDS011;52267;51.984;20.956;2024-02-15T06:17:41;21.30;;;11.20;;
65597;SDS011;52267;51.984;20.956;2024-02-15T06:20:15;23.30;;;11.60;;
65597;SDS011;52267;51.984;20.956;2024-02-15T06:22:44;20.20;;;11.30;;
65597;SDS011;52267;51.984;20.956;2024-02-15T06:25:11;15.20;;;7.90;;
65597;SDS011;52267;51.984;20.956;2024-02-15T06:27:39;20.60;;;11.20;;
65597;SDS011;52267;51.984;20.956;2024-02-15T06:30:10;23.10;;;12.80;;
65597;SDS011;52267;51.984;20.956;2024-02-15T06:32:59;20.10;;;11.40;;
65597;SDS011;52267;51.984;20.956;2024-02-15T06:35:45;19.50;;;11.10;;
65597;SDS011;52267;51.984;20.956;2024-02-15T06:38:30;20.60;;;10.50;;
65597;SDS011;52267;51.984;20.956;2024-02-15T06:41:16;22.50;;;12.10;;
65597;SDS011;52267;51.984;20.956;2024-02-15T06:43:45;20.60;;;11.30;;
65597;SDS011;52267;51.984;20.956;2024-02-15T06:46:12;16.40;;;10.00;;
65597;SDS011;52267;51.984;20.956;2024-02-15T06:48:43;20.50;;;12.20;;
65597;SDS011;52267;51.984;20.956;2024-02-15T06:51:14;19.70;;;11.70;;
65597;SDS011;52267;51.984;20.956;2024-02-15T06:53:41;20.70;;;11.00;;
65597;SDS011;52267;51.984;20.956;2024-02-15T06:56:09;17.50;;;8.60;;
65597;SDS011;52267;51.984;20.956;2024-02-15T06:58:37;23.00;;;12.00;;
65597;SDS011;52267;51.984;20.956;2024-02-15T07:01:04;18.20;;;10.40;;
65597;SDS011;52267;51.984;20.956;2024-02-15T07:03:31;26.10;;;14.10;;
65597;SDS011;52267;51.984;20.956;2024-02-15T07:05:59;19.60;;;11.80;;
65597;SDS011;52267;51.984;20.956;2024-02-15T07:08:29;25.50;;;14.90;;
65597;SDS011;52267;51.984;20.956;2024-02-15T07:10:58;26.70;;;15.40;;
65597;SDS011;52267;51.984;20.956;2024-02-15T07:13:25;18.90;;;10.50;;
65597;SDS011;52267;51.984;20.956;2024-02-15T07:15:53;26.00;;;13.90;;
65597;SDS011;52267;51.984;20.956;2024-02-15T07:18:20;27.50;;;15.80;;
65597;SDS011;52267;51.984;20.956;2024-02-15T07:20:48;23.90;;;14.10;;
65597;SDS011;52267;51.984;20.956;2024-02-15T07:23:15;29.60;;;14.80;;
65597;SDS011;52267;51.984;20.956;2024-02-15T07:25:42;22.90;;;13.80;;
65597;SDS011;52267;51.984;20.956;2024-02-15T07:28:09;25.80;;;12.20;;
65597;SDS011;52267;51.984;20.956;2024-02-15T07:30:37;21.80;;;11.20;;
65597;SDS011;52267;51.984;20.956;2024-02-15T07:33:04;24.20;;;12.40;;
65597;SDS011;52267;51.984;20.956;2024-02-15T07:35:33;21.30;;;12.70;;
65597;SDS011;52267;51.984;20.956;2024-02-15T07:38:01;27.30;;;15.20;;
65597;SDS011;52267;51.984;20.956;2024-02-15T07:40:29;21.90;;;11.60;;
65597;SDS011;52267;51.984;20.956;2024-02-15T07:42:56;25.40;;;15.10;;
65597;SDS011;52267;51.984;20.956;2024-02-15T07:45:27;29.00;;;15.10;;
65597;SDS011;52267;51.984;20.956;2024-02-15T07:47:55;16.80;;;10.40;;
65597;SDS011;52267;51.984;20.956;2024-02-15T07:50:22;30.00;;;15.80;;
65597;SDS011;52267;51.984;20.956;2024-02-15T07:52:49;24.60;;;15.50;;
65597;SDS011;52267;51.984;20.956;2024-02-15T07:55:17;29.20;;;16.60;;
65597;SDS011;52267;51.984;20.956;2024-02-15T07:57:44;19.90;;;12.40;;
65597;SDS011;52267;51.984;20.956;2024-02-15T08:00:15;25.80;;;14.00;;
65597;SDS011;52267;51.984;20.956;2024-02-15T08:02:43;27.70;;;16.70;;
65597;SDS011;52267;51.984;20.956;2024-02-15T08:05:10;25.40;;;13.60;;
65597;SDS011;52267;51.984;20.956;2024-02-15T08:07:45;27.70;;;14.80;;
65597;SDS011;52267;51.984;20.956;2024-02-15T08:10:13;26.70;;;14.40;;
65597;SDS011;52267;51.984;20.956;2024-02-15T08:12:42;27.80;;;15.90;;
65597;SDS011;52267;51.984;20.956;2024-02-15T08:15:10;30.80;;;16.50;;
65597;SDS011;52267;51.984;20.956;2024-02-15T08:17:41;23.20;;;12.40;;
65597;SDS011;52267;51.984;20.956;2024-02-15T08:20:13;31.10;;;16.70;;
65597;SDS011;52267;51.984;20.956;2024-02-15T08:22:41;23.80;;;13.50;;
65597;SDS011;52267;51.984;20.956;2024-02-15T08:25:11;28.70;;;15.60;;
65597;SDS011;52267;51.984;20.956;2024-02-15T08:27:41;22.00;;;12.70;;
65597;SDS011;52267;51.984;20.956;2024-02-15T08:30:13;18.50;;;11.90;;
65597;SDS011;52267;51.984;20.956;2024-02-15T08:32:41;27.20;;;14.50;;
65597;SDS011;52267;51.984;20.956;2024-02-15T08:35:09;31.50;;;19.20;;
65597;SDS011;52267;51.984;20.956;2024-02-15T08:37:37;29.20;;;15.90;;
65597;SDS011;52267;51.984;20.956;2024-02-15T08:40:07;22.20;;;13.80;;
65597;SDS011;52267;51.984;20.956;2024-02-15T08:42:41;31.60;;;18.40;;
65597;SDS011;52267;51.984;20.956;2024-02-15T08:45:09;28.40;;;16.10;;
65597;SDS011;52267;51.984;20.956;2024-02-15T08:47:39;23.20;;;14.10;;
65597;SDS011;52267;51.984;20.956;2024-02-15T08:50:09;32.30;;;17.40;;
65597;SDS011;52267;51.984;20.956;2024-02-15T08:52:37;34.20;;;18.70;;
65597;SDS011;52267;51.984;20.956;2024-02-15T08:55:09;27.20;;;14.80;;
65597;SDS011;52267;51.984;20.956;2024-02-15T09:00:08;32.50;;;18.60;;
65597;SDS011;52267;51.984;20.956;2024-02-15T09:02:45;31.80;;;19.80;;
65597;SDS011;52267;51.984;20.956;2024-02-15T09:05:13;30.30;;;17.10;;
65597;SDS011;52267;51.984;20.956;2024-02-15T09:07:45;36.00;;;21.10;;
65597;SDS011;52267;51.984;20.956;2024-02-15T09:10:15;28.20;;;17.50;;
65597;SDS011;52267;51.984;20.956;2024-02-15T09:12:45;35.30;;;19.40;;
65597;SDS011;52267;51.984;20.956;2024-02-15T09:15:16;28.60;;;18.40;;
65597;SDS011;52267;51.984;20.956;2024-02-15T09:17:43;32.80;;;18.00;;
65597;SDS011;52267;51.984;20.956;2024-02-15T09:20:14;25.80;;;13.80;;
65597;SDS011;52267;51.984;20.956;2024-02-15T09:22:48;35.90;;;18.80;;
65597;SDS011;52267;51.984;20.956;2024-02-15T09:25:17;32.00;;;18.80;;
65597;SDS011;52267;51.984;20.956;2024-02-15T09:27:44;29.90;;;18.20;;
65597;SDS011;52267;51.984;20.956;2024-02-15T09:30:18;34.70;;;20.30;;
65597;SDS011;52267;51.984;20.956;2024-02-15T09:32:45;29.40;;;18.60;;
65597;SDS011;52267;51.984;20.956;2024-02-15T09:35:13;33.00;;;19.60;;
65597;SDS011;52267;51.984;20.956;2024-02-15T09:37:45;30.30;;;16.80;;
65597;SDS011;52267;51.984;20.956;2024-02-15T09:40:18;32.60;;;18.10;;
65597;SDS011;52267;51.984;20.956;2024-02-15T09:42:46;29.60;;;14.30;;
65597;SDS011;52267;51.984;20.956;2024-02-15T09:45:15;32.60;;;19.50;;
65597;SDS011;52267;51.984;20.956;2024-02-15T09:47:43;20.90;;;11.80;;
65597;SDS011;52267;51.984;20.956;2024-02-15T09:50:15;25.80;;;14.40;;
65597;SDS011;52267;51.984;20.956;2024-02-15T09:52:45;34.00;;;20.70;;
65597;SDS011;52267;51.984;20.956;2024-02-15T09:55:14;29.80;;;16.80;;
65597;SDS011;52267;51.984;20.956;2024-02-15T09:57:47;24.90;;;14.10;;
65597;SDS011;52267;51.984;20.956;2024-02-15T10:00:15;34.50;;;19.70;;
65597;SDS011;52267;51.984;20.956;2024-02-15T10:02:44;35.70;;;20.80;;
65597;SDS011;52267;51.984;20.956;2024-02-15T10:05:13;34.10;;;19.70;;
65597;SDS011;52267;51.984;20.956;2024-02-15T10:07:41;36.20;;;20.20;;
65597;SDS011;52267;51.984;20.956;2024-02-15T10:12:43;36.70;;;22.60;;
65597;SDS011;52267;51.984;20.956;2024-02-15T10:15:10;37.90;;;20.90;;
65597;SDS011;52267;51.984;20.956;2024-02-15T10:17:37;32.00;;;18.10;;
65597;SDS011;52267;51.984;20.956;2024-02-15T10:20:07;34.20;;;20.80;;
65597;SDS011;52267;51.984;20.956;2024-02-15T10:25:13;33.30;;;19.40;;
65597;SDS011;52267;51.984;20.956;2024-02-15T10:27:41;35.80;;;20.20;;
65597;SDS011;52267;51.984;20.956;2024-02-15T10:30:18;33.70;;;19.60;;
65597;SDS011;52267;51.984;20.956;2024-02-15T10:32:46;29.90;;;16.00;;
65597;SDS011;52267;51.984;20.956;2024-02-15T10:35:22;41.40;;;23.20;;
65597;SDS011;52267;51.984;20.956;2024-02-15T10:38:11;41.20;;;23.70;;
65597;SDS011;52267;51.984;20.956;2024-02-15T10:40:40;37.90;;;21.80;;
65597;SDS011;52267;51.984;20.956;2024-02-15T10:43:10;44.00;;;22.10;;
65597;SDS011;52267;51.984;20.956;2024-02-15T10:45:40;35.50;;;21.80;;
65597;SDS011;52267;51.984;20.956;2024-02-15T10:48:09;38.90;;;22.80;;
65597;SDS011;52267;51.984;20.956;2024-02-15T10:50:39;37.20;;;21.80;;
65597;SDS011;52267;51.984;20.956;2024-02-15T10:53:23;41.10;;;21.60;;
65597;SDS011;52267;51.984;20.956;2024-02-15T10:58:50;38.70;;;20.40;;
65597;SDS011;52267;51.984;20.956;2024-02-15T11:01:36;33.60;;;19.80;;
65597;SDS011;52267;51.984;20.956;2024-02-15T11:04:07;39.10;;;24.00;;
65597;SDS011;52267;51.984;20.956;2024-02-15T11:06:38;37.80;;;20.80;;
65597;SDS011;52267;51.984;20.956;2024-02-15T11:09:09;37.40;;;21.70;;
65597;SDS011;52267;51.984;20.956;2024-02-15T11:11:39;36.40;;;20.70;;
65597;SDS011;52267;51.984;20.956;2024-02-15T11:14:40;38.70;;;21.80;;
65597;SDS011;52267;51.984;20.956;2024-02-15T11:17:11;35.80;;;22.00;;
65597;SDS011;52267;51.984;20.956;2024-02-15T11:19:43;42.40;;;25.20;;
65597;SDS011;52267;51.984;20.956;2024-02-15T11:22:15;35.30;;;20.40;;
65597;SDS011;52267;51.984;20.956;2024-02-15T11:24:48;33.40;;;19.40;;
65597;SDS011;52267;51.984;20.956;2024-02-15T11:27:29;38.90;;;22.20;;
65597;SDS011;52267;51.984;20.956;2024-02-15T11:30:01;40.10;;;22.90;;
65597;SDS011;52267;51.984;20.956;2024-02-15T11:32:40;35.10;;;22.00;;
65597;SDS011;52267;51.984;20.956;2024-02-15T11:35:12;21.50;;;13.00;;
65597;SDS011;52267;51.984;20.956;2024-02-15T11:40:26;35.70;;;20.90;;
65597;SDS011;52267;51.984;20.956;2024-02-15T11:43:01;37.30;;;23.40;;
65597;SDS011;52267;51.984;20.956;2024-02-15T11:45:31;37.50;;;21.40;;
65597;SDS011;52267;51.984;20.956;2024-02-15T11:48:08;37.00;;;21.90;;
65597;SDS011;52267;51.984;20.956;2024-02-15T11:50:39;36.10;;;22.60;;
65597;SDS011;52267;51.984;20.956;2024-02-15T11:53:08;40.40;;;24.10;;
65597;SDS011;52267;51.984;20.956;2024-02-15T11:55:39;44.60;;;23.50;;
65597;SDS011;52267;51.984;20.956;2024-02-15T11:58:08;38.50;;;22.90;;
65597;SDS011;52267;51.984;20.956;2024-02-15T12:00:38;34.40;;;21.30;;
65597;SDS011;52267;51.984;20.956;2024-02-15T12:03:25;36.50;;;20.90;;
65597;SDS011;52267;51.984;20.956;2024-02-15T12:06:10;32.90;;;19.10;;
65597;SDS011;52267;51.984;20.956;2024-02-15T12:08:56;34.10;;;20.30;;
65597;SDS011;52267;51.984;20.956;2024-02-15T12:11:41;32.30;;;19.60;;
65597;SDS011;52267;51.984;20.956;2024-02-15T12:14:27;32.30;;;18.00;;
65597;SDS011;52267;51.984;20.956;2024-02-15T12:17:13;30.50;;;18.00;;
65597;SDS011;52267;51.984;20.956;2024-02-15T12:20:12;32.20;;;19.10;;
65597;SDS011;52267;51.984;20.956;2024-02-15T12:22:44;34.40;;;20.50;;
65597;SDS011;52267;51.984;20.956;2024-02-15T12:25:16;33.00;;;18.20;;
65597;SDS011;52267;51.984;20.956;2024-02-15T12:27:56;29.60;;;16.70;;
65597;SDS011;52267;51.984;20.956;2024-02-15T12:30:32;26.10;;;15.10;;
65597;SDS011;52267;51.984;20.956;2024-02-15T12:33:10;31.20;;;18.80;;
65597;SDS011;52267;51.984;20.956;2024-02-15T12:35:38;25.80;;;15.80;;
65597;SDS011;52267;51.984;20.956;2024-02-15T12:38:05;28.20;;;18.20;;
65597;SDS011;52267;51.984;20.956;2024-02-15T12:40:36;29.90;;;17.40;;
65597;SDS011;52267;51.984;20.956;2024-02-15T12:43:08;31.10;;;18.20;;
65597;SDS011;52267;51.984;20.956;2024-02-15T12:45:36;26.70;;;17.00;;
65597;SDS011;52267;51.984;20.956;2024-02-15T12:48:07;27.60;;;16.40;;
65597;SDS011;52267;51.984;20.956;2024-02-15T12:50:35;30.80;;;17.40;;
65597;SDS011;52267;51.984;20.956;2024-02-15T12:53:02;27.90;;;17.80;;
65597;SDS011;52267;51.984;20.956;2024-02-15T12:55:30;24.80;;;16.40;;
65597;SDS011;52267;51.984;20.956;2024-02-15T12:58:02;32.80;;;19.20;;
65597;SDS011;52267;51.984;20.956;2024-02-15T13:00:31;30.70;;;18.00;;
65597;SDS011;52267;51.984;20.956;2024-02-15T13:03:01;31.50;;;18.70;;
65597;SDS011;52267;51.984;20.956;2024-02-15T13:05:31;30.30;;;18.20;;
65597;SDS011;52267;51.984;20.956;2024-02-15T13:07:58;26.60;;;16.30;;
65597;SDS011;52267;51.984;20.956;2024-02-15T13:10:27;29.80;;;17.40;;
65597;SDS011;52267;51.984;20.956;2024-02-15T13:12:55;29.60;;;18.30;;
65597;SDS011;52267;51.984;20.956;2024-02-15T13:15:23;31.40;;;16.80;;
65597;SDS011;52267;51.984;20.956;2024-02-15T13:17:54;29.00;;;18.00;;
65597;SDS011;52267;51.984;20.956;2024-02-15T13:20:22;29.60;;;17.70;;
65597;SDS011;52267;51.984;20.956;2024-02-15T13:23:19;29.30;;;17.40;;
65597;SDS011;52267;51.984;20.956;2024-02-15T13:25:49;27.90;;;16.70;;
65597;SDS011;52267;51.984;20.956;2024-02-15T13:28:16;29.90;;;17.10;;
65597;SDS011;52267;51.984;20.956;2024-02-15T13:30:44;27.40;;;16.90;;
65597;SDS011;52267;51.984;20.956;2024-02-15T13:33:12;25.70;;;16.30;;
65597;SDS011;52267;51.984;20.956;2024-02-15T13:35:40;27.30;;;15.60;;
65597;SDS011;52267;51.984;20.956;2024-02-15T13:38:07;31.00;;;17.60;;
65597;SDS011;52267;51.984;20.956;2024-02-15T13:40:41;29.90;;;17.40;;
65597;SDS011;52267;51.984;20.956;2024-02-15T13:43:08;28.80;;;17.00;;
65597;SDS011;52267;51.984;20.956;2024-02-15T13:45:40;27.00;;;15.90;;
65597;SDS011;52267;51.984;20.956;2024-02-15T13:48:08;28.90;;;16.60;;
65597;SDS011;52267;51.984;20.956;2024-02-15T13:50:36;29.20;;;16.10;;
65597;SDS011;52267;51.984;20.956;2024-02-15T13:53:05;29.00;;;17.30;;
65597;SDS011;52267;51.984;20.956;2024-02-15T13:55:33;26.70;;;16.20;;
65597;SDS011;52267;51.984;20.956;2024-02-15T13:58:00;27.70;;;16.00;;
65597;SDS011;52267;51.984;20.956;2024-02-15T14:00:28;29.40;;;17.70;;
65597;SDS011;52267;51.984;20.956;2024-02-15T14:03:01;26.40;;;16.30;;
65597;SDS011;52267;51.984;20.956;2024-02-15T14:05:30;30.90;;;17.70;;
65597;SDS011;52267;51.984;20.956;2024-02-15T14:07:59;26.10;;;17.10;;
65597;SDS011;52267;51.984;20.956;2024-02-15T14:10:29;28.10;;;15.00;;
65597;SDS011;52267;51.984;20.956;2024-02-15T14:12:57;28.50;;;17.00;;
65597;SDS011;52267;51.984;20.956;2024-02-15T14:15:25;29.50;;;17.20;;
65597;SDS011;52267;51.984;20.956;2024-02-15T14:17:52;29.30;;;17.80;;
65597;SDS011;52267;51.984;20.956;2024-02-15T14:20:20;27.00;;;16.30;;
65597;SDS011;52267;51.984;20.956;2024-02-15T14:22:49;29.30;;;16.90;;
65597;SDS011;52267;51.984;20.956;2024-02-15T14:25:32;29.20;;;18.70;;
65597;SDS011;52267;51.984;20.956;2024-02-15T14:28:00;30.20;;;18.30;;
65597;SDS011;52267;51.984;20.956;2024-02-15T14:30:27;27.60;;;16.80;;
65597;SDS011;52267;51.984;20.956;2024-02-15T14:33:13;29.80;;;18.30;;
65597;SDS011;52267;51.984;20.956;2024-02-15T14:35:46;24.00;;;15.50;;
65597;SDS011;52267;51.984;20.956;2024-02-15T14:38:14;28.50;;;17.80;;
65597;SDS011;52267;51.984;20.956;2024-02-15T14:40:43;31.40;;;18.10;;
65597;SDS011;52267;51.984;20.956;2024-02-15T14:43:20;31.10;;;18.50;;
65597;SDS011;52267;51.984;20.956;2024-02-15T14:45:48;29.70;;;17.80;;
65597;SDS011;52267;51.984;20.956;2024-02-15T14:48:16;34.40;;;18.00;;